ESPECIAL COVID-19 - Dados por Município

Graças a uma força-tarefa de 40 voluntários que, diariamente, compilam boletins epidemiológicos das 27 Secretarias Estaduais de Saúde, disponibilizamos uma base de dados com a série histórica de casos e óbitos confirmados por município. Embora essenciais para o planejamento de políticas de contenção do novo coronavírus, os dados municipais não têm sido divulgados pelo Ministério da Saúde. Ainda como parte desse esforço contínuo de fornecer dados úteis relacionados à pandemia, disponibilizamos outras bases estruturadas, como população dos municípios afetados, óbitos suspeitos registrados em cartório etc.

Panorama Nacional
info Boletins coletados
4.407
info Casos confirmados
2.869.272
info Óbitos confirmados
97.588 (3,40%)
info Municípios atingidos
5.473 (98%)
info População desses municípios
210M (100%)
info Municípios c/ óbitos
3.714 (68%)

Casos de COVID-19 por estado: Rio Grande do Norte

Panorama Estadual
info Boletins coletados
142
info Casos confirmados
53.649
info Óbitos confirmados
1.939 (3,61%)
info Municípios atingidos
165 (99%)
info População desses municípios
3M (100%)
info Municípios c/ óbitos
120 (73%)
Carregando   Carregando mapa...
Nota: casos importados não estão representados no mapa.
Data Município Confirmados Confirmados
por 100k hab.
Óbitos Letalidade Óbitos
por 100k hab.
02/08/2020 Acari 46 413,07 3 6,52% 26,94
02/08/2020 Açu 930 1.602,98 46 4,95% 79,29
02/08/2020 Afonso Bezerra 76 688,72 6 7,89% 54,37
02/08/2020 Água Nova 18 553,51 0 0,00% 0,00
02/08/2020 Alexandria 34 250,42 4 11,76% 29,46
02/08/2020 Almino Afonso 18 380,15 0 0,00% 0,00
02/08/2020 Alto do Rodrigues 281 1.934,06 11 3,91% 75,71
02/08/2020 Angicos 89 759,77 3 3,37% 25,61
02/08/2020 Antônio Martins 3 41,99 1 33,33% 14,00
02/08/2020 Apodi 1.276 3.559,77 20 1,57% 55,80
02/08/2020 Areia Branca 689 2.480,74 48 6,97% 172,82
02/08/2020 Arês 189 1.321,12 6 3,17% 41,94
02/08/2020 Baía Formosa 80 862,91 3 3,75% 32,36
02/08/2020 Baraúna 337 1.187,71 12 3,56% 42,29
02/08/2020 Barcelona 29 725,36 1 3,45% 25,01
02/08/2020 Bento Fernandes 22 400,22 1 4,55% 18,19
02/08/2020 Bodó 4 179,94 0 0,00% 0,00
02/08/2020 Bom Jesus 97 950,05 2 2,06% 19,59
02/08/2020 Brejinho 137 1.078,83 3 2,19% 23,62
02/08/2020 Caiçara do Norte 78 1.191,02 3 3,85% 45,81
02/08/2020 Caiçara do Rio do Vento 60 1.628,66 1 1,67% 27,14
02/08/2020 Caicó 977 1.437,78 17 1,74% 25,02
02/08/2020 Campo Redondo 152 1.355,09 2 1,32% 17,83
02/08/2020 Canguaretama 257 749,80 16 6,23% 46,68
02/08/2020 Caraúbas 278 1.356,56 5 1,80% 24,40
02/08/2020 Carnaúba dos Dantas 28 342,30 3 10,71% 36,67
02/08/2020 Carnaubais 99 920,16 4 4,04% 37,18
02/08/2020 Ceará-Mirim 666 906,16 35 5,26% 47,62
02/08/2020 Cerro Corá 31 277,31 1 3,23% 8,95
02/08/2020 Coronel Ezequiel 32 581,18 0 0,00% 0,00
02/08/2020 Coronel João Pessoa 7 142,51 1 14,29% 20,36
02/08/2020 Cruzeta 38 475,12 2 5,26% 25,01
02/08/2020 Currais Novos 468 1.044,97 11 2,35% 24,56
02/08/2020 Doutor Severiano 20 282,65 1 5,00% 14,13
02/08/2020 Encanto 35 620,79 4 11,43% 70,95
02/08/2020 Equador 18 297,77 0 0,00% 0,00
02/08/2020 Espírito Santo 134 1.275,58 5 3,73% 47,60
02/08/2020 Extremoz 453 1.584,86 30 6,62% 104,96
02/08/2020 Felipe Guerra 95 1.587,30 1 1,05% 16,71
02/08/2020 Fernando Pedroza 20 654,88 0 0,00% 0,00
02/08/2020 Florânia 77 844,67 5 6,49% 54,85
02/08/2020 Francisco Dantas 6 212,46 0 0,00% 0,00
02/08/2020 Frutuoso Gomes 12 294,99 0 0,00% 0,00
02/08/2020 Galinhos 50 1.794,69 0 0,00% 0,00
02/08/2020 Goianinha 339 1.287,60 5 1,47% 18,99
02/08/2020 Governador Dix-Sept Rosado 107 820,74 1 0,93% 7,67
02/08/2020 Grossos 224 2.157,37 4 1,79% 38,52
02/08/2020 Guamaré 379 2.420,33 14 3,69% 89,41
02/08/2020 Ielmo Marinho 106 770,01 1 0,94% 7,26
02/08/2020 Ipanguaçu 181 1.168,42 11 6,08% 71,01
02/08/2020 Ipueira 7 312,36 0 0,00% 0,00
02/08/2020 Itajá 181 2.397,99 2 1,10% 26,50
02/08/2020 Itaú 21 357,26 0 0,00% 0,00
02/08/2020 Jaçanã 183 2.003,72 1 0,55% 10,95
02/08/2020 Jandaíra 109 1.584,76 2 1,83% 29,08
02/08/2020 Janduís 51 968,11 1 1,96% 18,98
02/08/2020 Januário Cicco 37 363,42 0 0,00% 0,00
02/08/2020 Japi 18 356,08 0 0,00% 0,00
02/08/2020 Jardim de Angicos 3 114,85 0 0,00% 0,00
02/08/2020 Jardim de Piranhas 358 2.412,89 9 2,51% 60,66
02/08/2020 Jardim do Seridó 84 677,64 2 2,38% 16,13
02/08/2020 João Câmara 283 809,61 5 1,77% 14,30
02/08/2020 José da Penha 6 100,82 0 0,00% 0,00
02/08/2020 Jucurutu 175 956,55 4 2,29% 21,86
02/08/2020 Jundiá 54 1.385,33 2 3,70% 51,31
02/08/2020 Lagoa d'Anta 70 1.034,13 3 4,29% 44,32
02/08/2020 Lagoa de Pedras 30 397,67 4 13,33% 53,02
02/08/2020 Lagoa de Velhos 52 1.903,37 1 1,92% 36,60
02/08/2020 Lagoa Nova 42 268,99 2 4,76% 12,81
02/08/2020 Lagoa Salgada 62 751,97 2 3,23% 24,26
02/08/2020 Lajes 62 549,79 1 1,61% 8,87
02/08/2020 Lajes Pintadas 80 1.681,03 1 1,25% 21,01
02/08/2020 Lucrécia 5 125,13 0 0,00% 0,00
02/08/2020 Luís Gomes 23 227,36 1 4,35% 9,89
02/08/2020 Macaíba 688 851,57 43 6,25% 53,22
02/08/2020 Macau 249 782,67 16 6,43% 50,29
02/08/2020 Major Sales 12 298,51 1 8,33% 24,88
02/08/2020 Marcelino Vieira 36 431,29 1 2,78% 11,98
02/08/2020 Martins 16 183,38 0 0,00% 0,00
02/08/2020 Maxaranguape 126 1.018,51 2 1,59% 16,17
02/08/2020 Messias Targino 63 1.369,27 2 3,17% 43,47
02/08/2020 Montanhas 107 951,03 5 4,67% 44,44
02/08/2020 Monte Alegre 185 824,02 2 1,08% 8,91
02/08/2020 Monte das Gameleiras 10 475,06 1 10,00% 47,51
02/08/2020 Mossoró 5.201 1.748,95 185 3,56% 62,21
02/08/2020 Natal 19.788 2.238,15 832 4,20% 94,10
02/08/2020 Nísia Floresta 305 1.104,99 5 1,64% 18,11
02/08/2020 Nova Cruz 343 918,51 18 5,25% 48,20
02/08/2020 Olho-d'Água do Borges 25 587,13 0 0,00% 0,00
02/08/2020 Ouro Branco 25 519,53 0 0,00% 0,00
02/08/2020 Paraná 8 188,06 0 0,00% 0,00
02/08/2020 Paraú 41 1.088,11 1 2,44% 26,54
02/08/2020 Parazinho 63 1.202,98 0 0,00% 0,00
02/08/2020 Parelhas 75 349,21 0 0,00% 0,00
02/08/2020 Parnamirim 5.030 1.923,75 123 2,45% 47,04
02/08/2020 Passa e Fica 106 798,37 1 0,94% 7,53
02/08/2020 Passagem 30 971,19 0 0,00% 0,00
02/08/2020 Patu 24 188,16 1 4,17% 7,84
02/08/2020 Pau dos Ferros 102 335,59 3 2,94% 9,87
02/08/2020 Pedra Grande 48 1.482,85 0 0,00% 0,00
02/08/2020 Pedra Preta 6 244,10 0 0,00% 0,00
02/08/2020 Pedro Avelino 15 223,35 0 0,00% 0,00
02/08/2020 Pedro Velho 81 547,08 1 1,23% 6,75
02/08/2020 Pendências 242 1.599,58 14 5,79% 92,54
02/08/2020 Pilões 23 599,27 0 0,00% 0,00
02/08/2020 Poço Branco 189 1.226,24 3 1,59% 19,46
02/08/2020 Portalegre 31 394,05 0 0,00% 0,00
02/08/2020 Porto do Mangue 60 932,11 3 5,00% 46,61
02/08/2020 Pureza 85 883,48 1 1,18% 10,39
02/08/2020 Rafael Fernandes 7 137,31 0 0,00% 0,00
02/08/2020 Rafael Godeiro 15 468,60 0 0,00% 0,00
02/08/2020 Riacho da Cruz 14 391,17 1 7,14% 27,94
02/08/2020 Riacho de Santana 10 237,87 0 0,00% 0,00
02/08/2020 Riachuelo 130 1.599,41 2 1,54% 24,61
02/08/2020 Rio do Fogo 78 719,03 3 3,85% 27,65
02/08/2020 Rodolfo Fernandes 23 514,89 0 0,00% 0,00
02/08/2020 Ruy Barbosa 37 1.027,78 1 2,70% 27,78
02/08/2020 Santa Cruz 338 851,94 7 2,07% 17,64
02/08/2020 Santa Maria 65 1.170,96 3 4,62% 54,04
02/08/2020 Santana do Matos 44 343,99 1 2,27% 7,82
02/08/2020 Santana do Seridó 15 559,70 1 6,67% 37,31
02/08/2020 Santo Antônio 304 1.259,53 13 4,28% 53,86
02/08/2020 São Bento do Norte 54 1.965,78 0 0,00% 0,00
02/08/2020 São Bento do Trairí 49 1.101,37 1 2,04% 22,48
02/08/2020 São Fernando 14 390,63 1 7,14% 27,90
02/08/2020 São Francisco do Oeste 7 165,56 0 0,00% 0,00
02/08/2020 São Gonçalo do Amarante 1.895 1.850,59 71 3,75% 69,34
02/08/2020 São João do Sabugi 23 371,39 2 8,70% 32,29
02/08/2020 São José de Mipibu 825 1.879,31 16 1,94% 36,45
02/08/2020 São José do Campestre 160 1.244,56 7 4,37% 54,45
02/08/2020 São José do Seridó 28 604,23 0 0,00% 0,00
02/08/2020 São Miguel 97 412,43 2 2,06% 8,50
02/08/2020 São Miguel do Gostoso 114 1.108,73 9 7,89% 87,53
02/08/2020 São Paulo do Potengi 207 1.177,54 12 5,80% 68,26
02/08/2020 São Pedro 106 1.775,25 4 3,77% 66,99
02/08/2020 São Rafael 134 1.633,75 3 2,24% 36,58
02/08/2020 São Tomé 81 732,70 3 3,70% 27,14
02/08/2020 São Vicente 23 358,03 0 0,00% 0,00
02/08/2020 Senador Elói de Souza 44 722,97 0 0,00% 0,00
02/08/2020 Senador Georgino Avelino 31 698,20 2 6,45% 45,05
02/08/2020 Serra Caiada 86 827,32 4 4,65% 38,48
02/08/2020 Serra de São Bento 24 416,52 0 0,00% 0,00
02/08/2020 Serra do Mel 122 1.021,95 7 5,74% 58,64
02/08/2020 Serra Negra do Norte 136 1.683,59 6 4,41% 74,28
02/08/2020 Serrinha 33 529,78 0 0,00% 0,00
02/08/2020 Serrinha dos Pintos 8 166,67 0 0,00% 0,00
02/08/2020 Severiano Melo 29 1.188,52 0 0,00% 0,00
02/08/2020 Sítio Novo 16 289,75 1 6,25% 18,11
02/08/2020 Taboleiro Grande 12 467,65 1 8,33% 38,97
02/08/2020 Taipu 92 749,25 3 3,26% 24,43
02/08/2020 Tangará 57 362,43 2 3,51% 12,72
02/08/2020 Tenente Ananias 80 741,70 3 3,75% 27,81
02/08/2020 Tenente Laurentino Cruz 30 504,03 0 0,00% 0,00
02/08/2020 Tibau 58 1.412,57 3 5,17% 73,06
02/08/2020 Tibau do Sul 202 1.424,54 0 0,00% 0,00
02/08/2020 Timbaúba dos Batistas 23 952,78 0 0,00% 0,00
02/08/2020 Touros 383 1.150,60 17 4,44% 51,07
02/08/2020 Triunfo Potiguar 16 494,28 1 6,25% 30,89
02/08/2020 Umarizal 34 322,12 1 2,94% 9,47
02/08/2020 Upanema 68 463,88 5 7,35% 34,11
02/08/2020 Várzea 81 1.472,73 5 6,17% 90,91
02/08/2020 Venha-Ver 7 167,58 3 42,86% 71,82
02/08/2020 Vera Cruz 114 913,39 6 5,26% 48,07
02/08/2020 Viçosa 8 465,66 0 0,00% 0,00
02/08/2020 Vila Flor 73 2.302,84 0 0,00% 0,00

Baixar dados em CSV